sensor_id;sensor_type;location;lat;lon;timestamp;temperature;humidity
56046;DHT22;41913;51.030;3.706;2023-04-08T00:00:39;16.10;81.00
56046;DHT22;41913;51.030;3.706;2023-04-08T00:03:08;16.10;81.00
56046;DHT22;41913;51.030;3.706;2023-04-08T00:05:35;16.10;81.00
56046;DHT22;41913;51.030;3.706;2023-04-08T00:08:07;16.10;81.00
56046;DHT22;41913;51.030;3.706;2023-04-08T00:10:33;16.10;81.00
56046;DHT22;41913;51.030;3.706;2023-04-08T00:12:59;16.10;81.00
56046;DHT22;41913;51.030;3.706;2023-04-08T00:15:26;16.10;81.00
56046;DHT22;41913;51.030;3.706;2023-04-08T00:17:58;16.10;81.00
56046;DHT22;41913;51.030;3.706;2023-04-08T00:20:26;16.10;81.00
56046;DHT22;41913;51.030;3.706;2023-04-08T00:22:55;16.10;81.10
56046;DHT22;41913;51.030;3.706;2023-04-08T00:25:21;16.10;81.00
56046;DHT22;41913;51.030;3.706;2023-04-08T00:27:57;16.10;81.00
56046;DHT22;41913;51.030;3.706;2023-04-08T00:30:25;16.10;81.00
56046;DHT22;41913;51.030;3.706;2023-04-08T00:32:52;16.10;81.00
56046;DHT22;41913;51.030;3.706;2023-04-08T00:35:19;16.10;81.00
56046;DHT22;41913;51.030;3.706;2023-04-08T00:37:46;16.20;81.10
56046;DHT22;41913;51.030;3.706;2023-04-08T00:40:14;16.10;81.00
56046;DHT22;41913;51.030;3.706;2023-04-08T00:42:40;16.10;81.10
56046;DHT22;41913;51.030;3.706;2023-04-08T00:45:09;16.10;81.00
56046;DHT22;41913;51.030;3.706;2023-04-08T00:47:35;16.10;81.00
56046;DHT22;41913;51.030;3.706;2023-04-08T00:50:07;16.10;81.00
56046;DHT22;41913;51.030;3.706;2023-04-08T00:52:36;16.10;81.00
56046;DHT22;41913;51.030;3.706;2023-04-08T00:55:04;16.10;81.00
56046;DHT22;41913;51.030;3.706;2023-04-08T00:57:30;16.10;81.00
56046;DHT22;41913;51.030;3.706;2023-04-08T01:00:03;16.10;81.00
56046;DHT22;41913;51.030;3.706;2023-04-08T01:02:38;16.10;81.00
56046;DHT22;41913;51.030;3.706;2023-04-08T01:05:12;16.10;81.00
56046;DHT22;41913;51.030;3.706;2023-04-08T01:07:48;16.10;81.00
56046;DHT22;41913;51.030;3.706;2023-04-08T01:10:28;16.10;81.00
56046;DHT22;41913;51.030;3.706;2023-04-08T01:12:57;16.10;81.60
56046;DHT22;41913;51.030;3.706;2023-04-08T01:15:28;16.10;81.00
56046;DHT22;41913;51.030;3.706;2023-04-08T01:17:56;16.10;81.00
56046;DHT22;41913;51.030;3.706;2023-04-08T01:20:25;16.10;81.10
56046;DHT22;41913;51.030;3.706;2023-04-08T01:23:24;16.10;81.10
56046;DHT22;41913;51.030;3.706;2023-04-08T01:25:55;16.10;81.10
56046;DHT22;41913;51.030;3.706;2023-04-08T01:28:28;16.10;81.00
56046;DHT22;41913;51.030;3.706;2023-04-08T01:30:54;16.10;81.10
56046;DHT22;41913;51.030;3.706;2023-04-08T01:33:23;16.10;81.00
56046;DHT22;41913;51.030;3.706;2023-04-08T01:35:56;16.10;81.10
56046;DHT22;41913;51.030;3.706;2023-04-08T01:38:24;16.00;81.10
56046;DHT22;41913;51.030;3.706;2023-04-08T01:40:53;16.00;81.00
56046;DHT22;41913;51.030;3.706;2023-04-08T01:43:23;16.00;81.00
56046;DHT22;41913;51.030;3.706;2023-04-08T01:45:52;16.00;81.10
56046;DHT22;41913;51.030;3.706;2023-04-08T01:48:23;16.00;81.00
56046;DHT22;41913;51.030;3.706;2023-04-08T01:50:57;16.10;81.10
56046;DHT22;41913;51.030;3.706;2023-04-08T01:53:24;16.10;81.10
56046;DHT22;41913;51.030;3.706;2023-04-08T01:55:56;16.10;81.10
56046;DHT22;41913;51.030;3.706;2023-04-08T01:58:24;16.00;81.00
56046;DHT22;41913;51.030;3.706;2023-04-08T02:00:53;16.10;81.10
56046;DHT22;41913;51.030;3.706;2023-04-08T02:03:20;16.10;81.10
56046;DHT22;41913;51.030;3.706;2023-04-08T02:05:47;16.00;81.10
56046;DHT22;41913;51.030;3.706;2023-04-08T02:08:14;16.00;81.00
56046;DHT22;41913;51.030;3.706;2023-04-08T02:10:42;16.00;81.00
56046;DHT22;41913;51.030;3.706;2023-04-08T02:13:09;16.10;81.10
56046;DHT22;41913;51.030;3.706;2023-04-08T02:15:46;16.10;81.10
56046;DHT22;41913;51.030;3.706;2023-04-08T02:18:24;16.10;81.10
56046;DHT22;41913;51.030;3.706;2023-04-08T02:21:02;16.10;81.10
56046;DHT22;41913;51.030;3.706;2023-04-08T02:23:34;16.00;81.00
56046;DHT22;41913;51.030;3.706;2023-04-08T02:26:12;16.00;81.10
56046;DHT22;41913;51.030;3.706;2023-04-08T02:28:40;16.00;81.00
56046;DHT22;41913;51.030;3.706;2023-04-08T02:31:09;16.00;81.00
56046;DHT22;41913;51.030;3.706;2023-04-08T02:33:38;16.00;81.10
56046;DHT22;41913;51.030;3.706;2023-04-08T02:36:11;16.00;81.00
56046;DHT22;41913;51.030;3.706;2023-04-08T02:38:37;16.00;81.10
56046;DHT22;41913;51.030;3.706;2023-04-08T02:41:08;16.10;81.10
56046;DHT22;41913;51.030;3.706;2023-04-08T02:43:34;16.00;81.10
56046;DHT22;41913;51.030;3.706;2023-04-08T02:46:00;16.00;81.10
56046;DHT22;41913;51.030;3.706;2023-04-08T02:48:30;16.00;81.00
56046;DHT22;41913;51.030;3.706;2023-04-08T02:50:56;16.00;81.10
56046;DHT22;41913;51.030;3.706;2023-04-08T02:53:29;16.00;81.00
56046;DHT22;41913;51.030;3.706;2023-04-08T02:56:00;16.00;81.00
56046;DHT22;41913;51.030;3.706;2023-04-08T02:58:26;16.00;81.00
56046;DHT22;41913;51.030;3.706;2023-04-08T03:00:58;16.00;81.10
56046;DHT22;41913;51.030;3.706;2023-04-08T03:03:24;16.00;81.10
56046;DHT22;41913;51.030;3.706;2023-04-08T03:05:55;16.00;81.10
56046;DHT22;41913;51.030;3.706;2023-04-08T03:08:22;16.00;81.10
56046;DHT22;41913;51.030;3.706;2023-04-08T03:10:48;16.00;81.10
56046;DHT22;41913;51.030;3.706;2023-04-08T03:13:14;16.10;81.20
56046;DHT22;41913;51.030;3.706;2023-04-08T03:15:44;16.00;81.10
56046;DHT22;41913;51.030;3.706;2023-04-08T03:18:10;16.00;81.10
56046;DHT22;41913;51.030;3.706;2023-04-08T03:20:39;16.00;81.10
56046;DHT22;41913;51.030;3.706;2023-04-08T03:23:04;16.00;81.10
56046;DHT22;41913;51.030;3.706;2023-04-08T03:25:33;16.10;81.10
56046;DHT22;41913;51.030;3.706;2023-04-08T03:28:02;16.00;81.10
56046;DHT22;41913;51.030;3.706;2023-04-08T03:30:36;16.00;81.10
56046;DHT22;41913;51.030;3.706;2023-04-08T03:33:01;16.00;81.00
56046;DHT22;41913;51.030;3.706;2023-04-08T03:35:29;16.00;81.10
56046;DHT22;41913;51.030;3.706;2023-04-08T03:37:55;16.10;81.10
56046;DHT22;41913;51.030;3.706;2023-04-08T03:40:22;16.00;81.10
56046;DHT22;41913;51.030;3.706;2023-04-08T03:42:47;16.10;81.10
56046;DHT22;41913;51.030;3.706;2023-04-08T03:45:14;16.00;81.10
56046;DHT22;41913;51.030;3.706;2023-04-08T03:47:40;16.00;81.10
56046;DHT22;41913;51.030;3.706;2023-04-08T03:50:06;16.10;81.10
56046;DHT22;41913;51.030;3.706;2023-04-08T03:52:31;16.00;81.00
56046;DHT22;41913;51.030;3.706;2023-04-08T03:54:59;16.00;81.00
56046;DHT22;41913;51.030;3.706;2023-04-08T03:57:26;16.10;81.10
56046;DHT22;41913;51.030;3.706;2023-04-08T03:59:53;16.00;81.00
56046;DHT22;41913;51.030;3.706;2023-04-08T04:02:19;16.00;81.10
56046;DHT22;41913;51.030;3.706;2023-04-08T04:04:44;16.00;81.10
56046;DHT22;41913;51.030;3.706;2023-04-08T04:07:10;16.00;81.10
56046;DHT22;41913;51.030;3.706;2023-04-08T04:09:36;16.00;81.10
56046;DHT22;41913;51.030;3.706;2023-04-08T04:12:03;16.00;81.10
56046;DHT22;41913;51.030;3.706;2023-04-08T04:14:29;16.00;81.10
56046;DHT22;41913;51.030;3.706;2023-04-08T04:16:58;16.00;81.10
56046;DHT22;41913;51.030;3.706;2023-04-08T04:19:24;16.00;81.10
56046;DHT22;41913;51.030;3.706;2023-04-08T04:21:56;16.00;81.10
56046;DHT22;41913;51.030;3.706;2023-04-08T04:24:21;16.00;81.10
56046;DHT22;41913;51.030;3.706;2023-04-08T04:26:47;16.00;81.10
56046;DHT22;41913;51.030;3.706;2023-04-08T04:29:14;16.00;81.10
56046;DHT22;41913;51.030;3.706;2023-04-08T04:31:40;16.00;81.10
56046;DHT22;41913;51.030;3.706;2023-04-08T04:34:06;16.00;81.10
56046;DHT22;41913;51.030;3.706;2023-04-08T04:36:32;16.00;81.10
56046;DHT22;41913;51.030;3.706;2023-04-08T04:38:59;16.00;81.10
56046;DHT22;41913;51.030;3.706;2023-04-08T04:41:28;16.00;81.10
56046;DHT22;41913;51.030;3.706;2023-04-08T04:43:53;16.00;81.10
56046;DHT22;41913;51.030;3.706;2023-04-08T04:46:20;16.00;81.10
56046;DHT22;41913;51.030;3.706;2023-04-08T04:48:49;16.00;81.10
56046;DHT22;41913;51.030;3.706;2023-04-08T04:51:18;16.00;81.10
56046;DHT22;41913;51.030;3.706;2023-04-08T04:53:47;16.00;81.10
56046;DHT22;41913;51.030;3.706;2023-04-08T04:56:14;16.00;81.10
56046;DHT22;41913;51.030;3.706;2023-04-08T04:58:42;16.00;81.10
56046;DHT22;41913;51.030;3.706;2023-04-08T05:01:07;16.00;81.10
56046;DHT22;41913;51.030;3.706;2023-04-08T05:03:34;16.00;81.10
56046;DHT22;41913;51.030;3.706;2023-04-08T05:06:03;16.00;81.10
56046;DHT22;41913;51.030;3.706;2023-04-08T05:08:29;16.00;81.10
56046;DHT22;41913;51.030;3.706;2023-04-08T05:10:54;16.00;81.10
56046;DHT22;41913;51.030;3.706;2023-04-08T05:13:23;16.00;81.60
56046;DHT22;41913;51.030;3.706;2023-04-08T05:15:49;16.00;81.10
56046;DHT22;41913;51.030;3.706;2023-04-08T05:18:15;16.00;81.10
56046;DHT22;41913;51.030;3.706;2023-04-08T05:20:50;16.00;81.10
56046;DHT22;41913;51.030;3.706;2023-04-08T05:23:15;16.00;81.10
56046;DHT22;41913;51.030;3.706;2023-04-08T05:25:47;16.00;81.10
56046;DHT22;41913;51.030;3.706;2023-04-08T05:28:13;16.00;81.10
56046;DHT22;41913;51.030;3.706;2023-04-08T05:30:39;16.00;81.10
56046;DHT22;41913;51.030;3.706;2023-04-08T05:33:04;16.00;81.10
56046;DHT22;41913;51.030;3.706;2023-04-08T05:35:36;16.00;81.10
56046;DHT22;41913;51.030;3.706;2023-04-08T05:38:10;16.00;81.20
56046;DHT22;41913;51.030;3.706;2023-04-08T05:40:36;16.00;81.20
56046;DHT22;41913;51.030;3.706;2023-04-08T05:43:02;16.00;81.10
56046;DHT22;41913;51.030;3.706;2023-04-08T05:45:31;16.00;81.10
56046;DHT22;41913;51.030;3.706;2023-04-08T05:47:56;16.00;81.20
56046;DHT22;41913;51.030;3.706;2023-04-08T05:50:27;16.00;81.10
56046;DHT22;41913;51.030;3.706;2023-04-08T05:52:54;15.90;81.10
56046;DHT22;41913;51.030;3.706;2023-04-08T05:55:20;16.00;81.10
56046;DHT22;41913;51.030;3.706;2023-04-08T05:57:48;16.00;81.10
56046;DHT22;41913;51.030;3.706;2023-04-08T06:00:20;16.00;81.10
56046;DHT22;41913;51.030;3.706;2023-04-08T06:02:46;16.00;81.20
56046;DHT22;41913;51.030;3.706;2023-04-08T06:05:14;16.00;81.10
56046;DHT22;41913;51.030;3.706;2023-04-08T06:07:39;16.00;81.20
56046;DHT22;41913;51.030;3.706;2023-04-08T06:10:07;16.00;81.10
56046;DHT22;41913;51.030;3.706;2023-04-08T06:12:37;16.00;81.20
56046;DHT22;41913;51.030;3.706;2023-04-08T06:15:07;16.00;81.10
56046;DHT22;41913;51.030;3.706;2023-04-08T06:17:37;15.90;81.10
56046;DHT22;41913;51.030;3.706;2023-04-08T06:20:03;16.00;81.10
56046;DHT22;41913;51.030;3.706;2023-04-08T06:22:31;16.00;81.10
56046;DHT22;41913;51.030;3.706;2023-04-08T06:24:56;16.00;81.70
56046;DHT22;41913;51.030;3.706;2023-04-08T06:27:23;16.00;81.10
56046;DHT22;41913;51.030;3.706;2023-04-08T06:29:51;16.00;81.10
56046;DHT22;41913;51.030;3.706;2023-04-08T06:32:18;16.00;81.10
56046;DHT22;41913;51.030;3.706;2023-04-08T06:34:45;16.00;81.10
56046;DHT22;41913;51.030;3.706;2023-04-08T06:37:10;16.00;81.10
56046;DHT22;41913;51.030;3.706;2023-04-08T06:39:36;16.00;81.10
56046;DHT22;41913;51.030;3.706;2023-04-08T06:42:05;16.00;81.10
56046;DHT22;41913;51.030;3.706;2023-04-08T06:44:30;15.90;81.10
56046;DHT22;41913;51.030;3.706;2023-04-08T06:46:57;16.00;81.20
56046;DHT22;41913;51.030;3.706;2023-04-08T06:49:24;16.00;81.10
56046;DHT22;41913;51.030;3.706;2023-04-08T06:51:54;16.00;81.10
56046;DHT22;41913;51.030;3.706;2023-04-08T06:54:20;16.00;81.10
56046;DHT22;41913;51.030;3.706;2023-04-08T06:56:46;16.00;81.10
56046;DHT22;41913;51.030;3.706;2023-04-08T06:59:12;16.00;81.10
56046;DHT22;41913;51.030;3.706;2023-04-08T07:01:46;15.90;81.10
56046;DHT22;41913;51.030;3.706;2023-04-08T07:04:12;15.90;81.10
56046;DHT22;41913;51.030;3.706;2023-04-08T07:06:41;16.00;81.10
56046;DHT22;41913;51.030;3.706;2023-04-08T07:09:16;15.90;81.10
56046;DHT22;41913;51.030;3.706;2023-04-08T07:11:44;16.00;81.10
56046;DHT22;41913;51.030;3.706;2023-04-08T07:14:11;15.90;81.10
56046;DHT22;41913;51.030;3.706;2023-04-08T07:16:38;15.90;81.10
56046;DHT22;41913;51.030;3.706;2023-04-08T07:19:12;16.00;81.10
56046;DHT22;41913;51.030;3.706;2023-04-08T07:21:38;15.90;81.10
56046;DHT22;41913;51.030;3.706;2023-04-08T07:24:04;16.00;81.10
56046;DHT22;41913;51.030;3.706;2023-04-08T07:26:30;15.90;81.10
56046;DHT22;41913;51.030;3.706;2023-04-08T07:28:56;15.90;81.10
56046;DHT22;41913;51.030;3.706;2023-04-08T07:31:21;16.00;81.20
56046;DHT22;41913;51.030;3.706;2023-04-08T07:33:50;15.90;81.10
56046;DHT22;41913;51.030;3.706;2023-04-08T07:36:15;16.00;81.20
56046;DHT22;41913;51.030;3.706;2023-04-08T07:38:44;15.90;81.10
56046;DHT22;41913;51.030;3.706;2023-04-08T07:41:10;16.00;81.10
56046;DHT22;41913;51.030;3.706;2023-04-08T07:43:35;15.90;81.10
56046;DHT22;41913;51.030;3.706;2023-04-08T07:46:09;15.90;81.10
56046;DHT22;41913;51.030;3.706;2023-04-08T07:48:35;15.90;81.10
56046;DHT22;41913;51.030;3.706;2023-04-08T07:51:12;15.90;81.10
56046;DHT22;41913;51.030;3.706;2023-04-08T07:53:39;15.90;81.10
56046;DHT22;41913;51.030;3.706;2023-04-08T07:56:25;15.90;81.10
56046;DHT22;41913;51.030;3.706;2023-04-08T07:58:57;15.90;81.10
56046;DHT22;41913;51.030;3.706;2023-04-08T08:01:24;16.00;81.20
56046;DHT22;41913;51.030;3.706;2023-04-08T08:03:53;16.00;81.20
56046;DHT22;41913;51.030;3.706;2023-04-08T08:06:18;15.90;81.10
56046;DHT22;41913;51.030;3.706;2023-04-08T08:08:45;16.00;81.20
56046;DHT22;41913;51.030;3.706;2023-04-08T08:11:11;16.00;81.20
56046;DHT22;41913;51.030;3.706;2023-04-08T08:13:37;16.00;81.20
56046;DHT22;41913;51.030;3.706;2023-04-08T08:16:03;16.00;81.20
56046;DHT22;41913;51.030;3.706;2023-04-08T08:18:35;16.00;81.20
56046;DHT22;41913;51.030;3.706;2023-04-08T08:21:01;16.00;81.30
56046;DHT22;41913;51.030;3.706;2023-04-08T08:23:27;16.00;81.30
56046;DHT22;41913;51.030;3.706;2023-04-08T08:26:13;16.00;81.30
56046;DHT22;41913;51.030;3.706;2023-04-08T08:28:42;16.00;81.30
56046;DHT22;41913;51.030;3.706;2023-04-08T08:31:07;16.00;81.30
56046;DHT22;41913;51.030;3.706;2023-04-08T08:33:36;16.00;81.30
56046;DHT22;41913;51.030;3.706;2023-04-08T08:36:04;16.00;81.30
56046;DHT22;41913;51.030;3.706;2023-04-08T08:38:30;16.10;81.40
56046;DHT22;41913;51.030;3.706;2023-04-08T08:40:59;16.00;81.80
56046;DHT22;41913;51.030;3.706;2023-04-08T08:43:27;16.00;81.30
56046;DHT22;41913;51.030;3.706;2023-04-08T08:45:53;16.00;81.30
56046;DHT22;41913;51.030;3.706;2023-04-08T08:48:19;16.00;81.30
56046;DHT22;41913;51.030;3.706;2023-04-08T08:50:48;16.10;81.30
56046;DHT22;41913;51.030;3.706;2023-04-08T08:53:14;16.10;81.30
56046;DHT22;41913;51.030;3.706;2023-04-08T08:55:39;16.00;81.30
56046;DHT22;41913;51.030;3.706;2023-04-08T08:58:05;16.00;81.30
56046;DHT22;41913;51.030;3.706;2023-04-08T09:00:36;16.10;81.30
56046;DHT22;41913;51.030;3.706;2023-04-08T09:03:15;16.00;81.20
56046;DHT22;41913;51.030;3.706;2023-04-08T09:06:00;16.10;81.30
56046;DHT22;41913;51.030;3.706;2023-04-08T09:08:31;16.00;81.20
56046;DHT22;41913;51.030;3.706;2023-04-08T09:14:21;16.10;81.20
56046;DHT22;41913;51.030;3.706;2023-04-08T09:16:48;16.00;81.20
56046;DHT22;41913;51.030;3.706;2023-04-08T09:19:14;16.10;81.30
56046;DHT22;41913;51.030;3.706;2023-04-08T09:21:40;16.00;81.20
56046;DHT22;41913;51.030;3.706;2023-04-08T09:24:07;16.00;81.20
56046;DHT22;41913;51.030;3.706;2023-04-08T09:26:39;16.10;81.30
56046;DHT22;41913;51.030;3.706;2023-04-08T09:29:12;16.00;81.20
56046;DHT22;41913;51.030;3.706;2023-04-08T09:31:40;16.00;81.20
56046;DHT22;41913;51.030;3.706;2023-04-08T09:34:13;16.00;81.20
56046;DHT22;41913;51.030;3.706;2023-04-08T09:36:45;16.00;81.20
56046;DHT22;41913;51.030;3.706;2023-04-08T09:39:15;16.10;81.20
56046;DHT22;41913;51.030;3.706;2023-04-08T09:41:47;16.10;81.20
56046;DHT22;41913;51.030;3.706;2023-04-08T09:44:14;16.10;81.20
56046;DHT22;41913;51.030;3.706;2023-04-08T09:52:45;16.10;81.20
56046;DHT22;41913;51.030;3.706;2023-04-08T09:55:21;16.10;81.20
56046;DHT22;41913;51.030;3.706;2023-04-08T10:00:39;16.00;81.20
56046;DHT22;41913;51.030;3.706;2023-04-08T10:05:48;16.00;81.20
56046;DHT22;41913;51.030;3.706;2023-04-08T10:08:15;16.10;81.30
56046;DHT22;41913;51.030;3.706;2023-04-08T10:10:41;16.00;81.20
56046;DHT22;41913;51.030;3.706;2023-04-08T10:13:08;16.00;81.20
56046;DHT22;41913;51.030;3.706;2023-04-08T10:15:36;16.00;81.20
56046;DHT22;41913;51.030;3.706;2023-04-08T10:23:06;16.00;81.20
56046;DHT22;41913;51.030;3.706;2023-04-08T10:25:47;16.10;81.20
56046;DHT22;41913;51.030;3.706;2023-04-08T10:30:46;16.10;81.30
56046;DHT22;41913;51.030;3.706;2023-04-08T10:33:23;16.10;81.30
56046;DHT22;41913;51.030;3.706;2023-04-08T10:36:00;16.10;81.30
56046;DHT22;41913;51.030;3.706;2023-04-08T10:38:41;16.10;81.30
56046;DHT22;41913;51.030;3.706;2023-04-08T10:41:11;16.00;81.80
56046;DHT22;41913;51.030;3.706;2023-04-08T10:43:38;16.10;81.30
56046;DHT22;41913;51.030;3.706;2023-04-08T10:46:04;16.10;81.30
56046;DHT22;41913;51.030;3.706;2023-04-08T10:48:30;16.10;81.30
56046;DHT22;41913;51.030;3.706;2023-04-08T10:51:08;16.10;81.30
56046;DHT22;41913;51.030;3.706;2023-04-08T10:53:40;16.10;81.30
56046;DHT22;41913;51.030;3.706;2023-04-08T10:56:13;16.10;81.30
56046;DHT22;41913;51.030;3.706;2023-04-08T10:58:54;16.10;81.30
56046;DHT22;41913;51.030;3.706;2023-04-08T11:01:37;16.10;81.30
56046;DHT22;41913;51.030;3.706;2023-04-08T11:04:13;16.10;81.30
56046;DHT22;41913;51.030;3.706;2023-04-08T11:06:44;16.10;81.30
56046;DHT22;41913;51.030;3.706;2023-04-08T11:09:14;16.10;81.30
56046;DHT22;41913;51.030;3.706;2023-04-08T11:11:56;16.10;81.30
56046;DHT22;41913;51.030;3.706;2023-04-08T11:14:24;16.10;81.30
56046;DHT22;41913;51.030;3.706;2023-04-08T11:16:50;16.10;81.30
56046;DHT22;41913;51.030;3.706;2023-04-08T11:19:20;16.10;81.30
56046;DHT22;41913;51.030;3.706;2023-04-08T11:21:50;16.10;81.40
56046;DHT22;41913;51.030;3.706;2023-04-08T11:24:22;16.10;81.30
56046;DHT22;41913;51.030;3.706;2023-04-08T11:26:48;16.10;81.30
56046;DHT22;41913;51.030;3.706;2023-04-08T11:29:14;16.10;81.30
56046;DHT22;41913;51.030;3.706;2023-04-08T11:31:47;16.10;81.30
56046;DHT22;41913;51.030;3.706;2023-04-08T11:34:32;16.10;81.40
56046;DHT22;41913;51.030;3.706;2023-04-08T11:37:00;16.10;81.30
56046;DHT22;41913;51.030;3.706;2023-04-08T11:39:29;16.10;81.40
56046;DHT22;41913;51.030;3.706;2023-04-08T11:41:58;16.10;81.40
56046;DHT22;41913;51.030;3.706;2023-04-08T11:44:31;16.10;81.40
56046;DHT22;41913;51.030;3.706;2023-04-08T11:46:59;16.10;81.40
56046;DHT22;41913;51.030;3.706;2023-04-08T11:49:27;16.10;81.40
56046;DHT22;41913;51.030;3.706;2023-04-08T11:52:07;16.20;81.40
56046;DHT22;41913;51.030;3.706;2023-04-08T11:54:33;16.10;81.40
56046;DHT22;41913;51.030;3.706;2023-04-08T11:57:01;16.10;81.40
56046;DHT22;41913;51.030;3.706;2023-04-08T11:59:30;16.10;81.40
56046;DHT22;41913;51.030;3.706;2023-04-08T12:02:06;16.10;81.40
56046;DHT22;41913;51.030;3.706;2023-04-08T12:04:35;16.10;81.40
56046;DHT22;41913;51.030;3.706;2023-04-08T12:07:00;16.10;81.40
56046;DHT22;41913;51.030;3.706;2023-04-08T12:09:27;16.20;81.40
56046;DHT22;41913;51.030;3.706;2023-04-08T12:11:55;16.20;81.40
56046;DHT22;41913;51.030;3.706;2023-04-08T12:14:22;16.20;81.40
56046;DHT22;41913;51.030;3.706;2023-04-08T12:16:50;16.20;81.40
56046;DHT22;41913;51.030;3.706;2023-04-08T12:19:17;16.20;81.40
56046;DHT22;41913;51.030;3.706;2023-04-08T12:21:44;16.20;81.40
56046;DHT22;41913;51.030;3.706;2023-04-08T12:24:12;16.20;81.40
56046;DHT22;41913;51.030;3.706;2023-04-08T12:26:37;16.20;81.40
56046;DHT22;41913;51.030;3.706;2023-04-08T12:29:03;16.20;81.40
56046;DHT22;41913;51.030;3.706;2023-04-08T12:31:29;16.20;81.40
56046;DHT22;41913;51.030;3.706;2023-04-08T12:33:56;16.20;81.40
56046;DHT22;41913;51.030;3.706;2023-04-08T12:36:25;16.20;81.40
56046;DHT22;41913;51.030;3.706;2023-04-08T12:38:55;16.20;81.40
56046;DHT22;41913;51.030;3.706;2023-04-08T12:41:24;16.20;81.40
56046;DHT22;41913;51.030;3.706;2023-04-08T12:43:49;16.20;81.50
56046;DHT22;41913;51.030;3.706;2023-04-08T12:46:16;16.20;81.40
56046;DHT22;41913;51.030;3.706;2023-04-08T12:48:41;16.20;81.40
56046;DHT22;41913;51.030;3.706;2023-04-08T12:51:12;16.20;81.40
56046;DHT22;41913;51.030;3.706;2023-04-08T12:53:40;16.20;81.40
56046;DHT22;41913;51.030;3.706;2023-04-08T12:56:06;16.20;81.40
56046;DHT22;41913;51.030;3.706;2023-04-08T12:58:32;16.30;81.50
56046;DHT22;41913;51.030;3.706;2023-04-08T13:01:01;16.20;81.40
56046;DHT22;41913;51.030;3.706;2023-04-08T13:03:28;16.20;81.40
56046;DHT22;41913;51.030;3.706;2023-04-08T13:05:57;16.20;81.40
56046;DHT22;41913;51.030;3.706;2023-04-08T13:08:24;16.20;81.40
56046;DHT22;41913;51.030;3.706;2023-04-08T13:10:49;16.20;82.00
56046;DHT22;41913;51.030;3.706;2023-04-08T13:13:16;16.20;81.40
56046;DHT22;41913;51.030;3.706;2023-04-08T13:15:43;16.20;81.40
56046;DHT22;41913;51.030;3.706;2023-04-08T13:18:10;16.20;81.40
56046;DHT22;41913;51.030;3.706;2023-04-08T13:20:36;16.20;81.40
56046;DHT22;41913;51.030;3.706;2023-04-08T13:23:02;16.30;81.50
56046;DHT22;41913;51.030;3.706;2023-04-08T13:25:30;16.20;81.40
56046;DHT22;41913;51.030;3.706;2023-04-08T13:27:59;16.30;81.50
56046;DHT22;41913;51.030;3.706;2023-04-08T13:30:24;16.20;81.50
56046;DHT22;41913;51.030;3.706;2023-04-08T13:32:50;16.30;81.50
56046;DHT22;41913;51.030;3.706;2023-04-08T13:35:22;16.30;81.50
56046;DHT22;41913;51.030;3.706;2023-04-08T13:37:49;16.20;81.40
56046;DHT22;41913;51.030;3.706;2023-04-08T13:40:16;16.30;81.50
56046;DHT22;41913;51.030;3.706;2023-04-08T13:42:45;16.30;81.50
56046;DHT22;41913;51.030;3.706;2023-04-08T13:45:13;16.30;81.50
56046;DHT22;41913;51.030;3.706;2023-04-08T13:47:40;16.30;81.50
56046;DHT22;41913;51.030;3.706;2023-04-08T13:50:06;16.30;81.50
56046;DHT22;41913;51.030;3.706;2023-04-08T13:52:32;16.30;81.50
56046;DHT22;41913;51.030;3.706;2023-04-08T13:55:00;16.30;81.50
56046;DHT22;41913;51.030;3.706;2023-04-08T13:57:26;16.30;81.50
56046;DHT22;41913;51.030;3.706;2023-04-08T13:59:52;16.40;81.60
56046;DHT22;41913;51.030;3.706;2023-04-08T14:02:18;16.30;81.50
56046;DHT22;41913;51.030;3.706;2023-04-08T14:04:45;16.30;81.50
56046;DHT22;41913;51.030;3.706;2023-04-08T14:07:13;16.30;81.60
56046;DHT22;41913;51.030;3.706;2023-04-08T14:09:40;16.30;81.50
56046;DHT22;41913;51.030;3.706;2023-04-08T14:12:06;16.30;81.50
56046;DHT22;41913;51.030;3.706;2023-04-08T14:14:32;16.30;81.50
56046;DHT22;41913;51.030;3.706;2023-04-08T14:16:58;16.30;81.60
56046;DHT22;41913;51.030;3.706;2023-04-08T14:19:24;16.40;81.60
56046;DHT22;41913;51.030;3.706;2023-04-08T14:21:49;16.30;81.50
56046;DHT22;41913;51.030;3.706;2023-04-08T14:24:17;16.30;81.60
56046;DHT22;41913;51.030;3.706;2023-04-08T14:26:44;16.40;81.60
56046;DHT22;41913;51.030;3.706;2023-04-08T14:29:10;16.30;81.50
56046;DHT22;41913;51.030;3.706;2023-04-08T14:31:37;16.30;81.60
56046;DHT22;41913;51.030;3.706;2023-04-08T14:34:03;16.30;82.10
56046;DHT22;41913;51.030;3.706;2023-04-08T14:36:31;16.40;81.60
56046;DHT22;41913;51.030;3.706;2023-04-08T14:38:57;16.30;81.50
56046;DHT22;41913;51.030;3.706;2023-04-08T14:41:23;16.40;81.60
56046;DHT22;41913;51.030;3.706;2023-04-08T14:43:52;16.40;81.60
56046;DHT22;41913;51.030;3.706;2023-04-08T14:46:19;16.30;81.50
56046;DHT22;41913;51.030;3.706;2023-04-08T14:48:45;16.30;81.50
56046;DHT22;41913;51.030;3.706;2023-04-08T14:51:12;16.40;81.60
56046;DHT22;41913;51.030;3.706;2023-04-08T14:53:38;16.40;81.60
56046;DHT22;41913;51.030;3.706;2023-04-08T14:56:09;16.40;81.60
56046;DHT22;41913;51.030;3.706;2023-04-08T14:58:35;16.40;81.60
56046;DHT22;41913;51.030;3.706;2023-04-08T15:01:02;16.40;81.60
56046;DHT22;41913;51.030;3.706;2023-04-08T15:03:29;16.40;81.60
56046;DHT22;41913;51.030;3.706;2023-04-08T15:05:58;16.40;81.60
56046;DHT22;41913;51.030;3.706;2023-04-08T15:08:25;16.40;82.10
56046;DHT22;41913;51.030;3.706;2023-04-08T15:10:50;16.40;81.60
56046;DHT22;41913;51.030;3.706;2023-04-08T15:13:19;16.40;81.60
56046;DHT22;41913;51.030;3.706;2023-04-08T15:15:45;16.40;81.60
56046;DHT22;41913;51.030;3.706;2023-04-08T15:18:10;16.40;81.60
56046;DHT22;41913;51.030;3.706;2023-04-08T15:20:38;16.40;82.10
56046;DHT22;41913;51.030;3.706;2023-04-08T15:23:04;16.40;81.60
56046;DHT22;41913;51.030;3.706;2023-04-08T15:25:31;16.40;81.60
56046;DHT22;41913;51.030;3.706;2023-04-08T15:27:57;16.50;81.60
56046;DHT22;41913;51.030;3.706;2023-04-08T15:30:22;16.40;81.60
56046;DHT22;41913;51.030;3.706;2023-04-08T15:32:53;16.40;81.60
56046;DHT22;41913;51.030;3.706;2023-04-08T15:35:19;16.40;81.60
56046;DHT22;41913;51.030;3.706;2023-04-08T15:37:46;16.40;81.60
56046;DHT22;41913;51.030;3.706;2023-04-08T15:40:12;16.40;81.60
56046;DHT22;41913;51.030;3.706;2023-04-08T15:42:38;16.40;81.60
56046;DHT22;41913;51.030;3.706;2023-04-08T15:45:04;16.40;81.60
56046;DHT22;41913;51.030;3.706;2023-04-08T15:47:30;16.40;81.60
56046;DHT22;41913;51.030;3.706;2023-04-08T15:50:00;16.40;81.60
56046;DHT22;41913;51.030;3.706;2023-04-08T15:52:25;16.40;81.60
56046;DHT22;41913;51.030;3.706;2023-04-08T15:54:53;16.40;82.10
56046;DHT22;41913;51.030;3.706;2023-04-08T15:57:19;16.40;82.20
56046;DHT22;41913;51.030;3.706;2023-04-08T15:59:51;16.40;81.60